Anch, Alaska
Current Conditions -  °F | °C
As of 12:58 PM on Thursday 23 Oct 2014 (Local Time) from PAED Reporting Station
Clear Clear  
Wind Chill: 33°   Ceiling: Unl
Heat Index: 33°   Visibility: 10mi
Dew Point: 23°   Wind: 0mph
Humidity: 66%   Direction: NA
Pressure: 29.71"   Gusts: NA
Location:  61.2265°N, 149.62°W
Report Text: PAED 232058Z AUTO 00000KT 10SM CLR 01/M05 A2971 RMK AO2 SLP058 T00061050 52015 $
Loading
Personal Weather Stations






























Interactive Weather Map
Tropical Storm Tracking
New forecast layout! Learn more

10-Day Weather Forecast

Advertisements
Track Severe Weather on mobile